Time;durP1;ratioP1;P1;durP2;ratioP2;P2;SDS_P1;SDS_P2;PMS_P1;PMS_P2;Temp;Humidity;BMP_temperature;BMP_pressure;BME280_temperature;BME280_humidity;BME280_pressure;Samples;Min_cycle;Max_cycle;Signal;HPM_P1;HPM_P2
2021/09/30 00:02:21;;;;;;;8.98;1.67;;;;;;;10.63;70.77;102477.59;5094585;28;20119;-74
2021/09/30 00:04:46;;;;;;;13.43;1.60;;;;;;;10.61;69.77;102482.19;5094033;28;20119;-74
2021/09/30 00:07:12;;;;;;;7.88;1.83;;;;;;;10.64;69.59;102476.66;5094725;28;20031;-74
2021/09/30 00:09:43;;;;;;;10.25;1.55;;;;;;;10.62;69.81;102487.41;5094483;28;20028;-76
2021/09/30 00:12:13;;;;;;;9.13;1.92;;;;;;;10.59;70.30;102483.13;5094627;28;20464;-74
2021/09/30 00:36:13;;;;;;;10.57;1.77;;;;;;;10.70;69.17;102497.53;5094452;28;20040;-74
2021/09/30 02:23:44;;;;;;;6.50;1.55;;;;;;;10.41;71.02;102511.78;5092846;28;20032;-74
2021/09/30 02:28:47;;;;;;;8.65;1.70;;;;;;;10.48;70.30;102514.91;5092556;28;20097;-74
2021/09/30 02:34:53;;;;;;;11.40;1.60;;;;;;;10.48;70.04;102522.91;5091920;28;20135;-75
2021/09/30 02:40:04;;;;;;;12.55;1.73;;;;;;;10.45;69.42;102508.91;5092245;28;20047;-74
2021/09/30 02:58:56;;;;;;;5.85;1.70;;;;;;;10.40;69.06;102522.50;5092090;28;20047;-75
2021/09/30 03:01:24;;;;;;;11.82;1.75;;;;;;;10.39;68.10;102523.47;5092108;28;20032;-74
2021/09/30 03:03:53;;;;;;;9.70;1.80;;;;;;;10.41;69.24;102521.56;5092199;28;20054;-75
2021/09/30 03:06:20;;;;;;;15.90;2.03;;;;;;;10.39;71.05;102521.66;5091458;28;20114;-75
2021/09/30 03:08:49;;;;;;;20.52;1.88;;;;;;;10.37;68.86;102523.56;5092225;28;20036;-74
2021/09/30 03:11:16;;;;;;;7.18;1.58;;;;;;;10.39;68.57;102519.00;5076717;28;20093;-75
2021/09/30 03:13:46;;;;;;;9.27;1.90;;;;;;;10.41;68.34;102519.75;5095722;28;20056;-75
2021/09/30 03:16:38;;;;;;;8.27;2.03;;;;;;;10.45;68.01;102516.91;5076806;28;20090;-74
2021/09/30 03:19:04;;;;;;;11.73;1.90;;;;;;;10.43;67.44;102534.78;5094446;28;20101;-75
2021/09/30 03:24:16;;;;;;;10.35;2.00;;;;;;;10.46;67.84;102531.91;5094791;28;20452;-74
2021/09/30 03:26:44;;;;;;;10.70;1.58;;;;;;;10.43;66.75;102527.63;5077569;28;20036;-75
2021/09/30 03:29:12;;;;;;;6.85;1.30;;;;;;;10.43;67.20;102532.13;5094944;28;20028;-74
2021/09/30 03:31:38;;;;;;;8.98;1.65;;;;;;;10.41;66.53;102535.72;5095469;28;20088;-75
2021/09/30 03:34:03;;;;;;;8.75;1.50;;;;;;;10.39;66.51;102531.47;5095166;28;20524;-74
2021/09/30 03:36:29;;;;;;;11.63;1.80;;;;;;;10.39;66.61;102547.44;5095020;28;20035;-74
2021/09/30 03:38:55;;;;;;;7.65;1.70;;;;;;;10.33;66.70;102545.09;5095296;28;20028;-75
2021/09/30 03:41:20;;;;;;;12.27;2.20;;;;;;;10.30;66.62;102551.47;5094752;28;20269;-74
2021/09/30 03:43:46;;;;;;;7.25;1.45;;;;;;;10.31;65.84;102550.50;5095218;28;20028;-75
2021/09/30 03:46:15;;;;;;;6.63;1.40;;;;;;;10.32;66.70;102546.91;5094593;28;20028;-75
2021/09/30 03:48:40;;;;;;;10.40;1.85;;;;;;;10.33;65.92;102551.31;5095050;28;20028;-74
2021/09/30 03:53:51;;;;;;;13.45;2.35;;;;;;;10.22;66.19;102554.59;5094733;28;20040;-74
2021/09/30 04:01:27;;;;;;;11.88;1.77;;;;;;;10.11;66.14;102556.22;5078816;28;20043;-74
2021/09/30 04:03:52;;;;;;;11.32;2.28;;;;;;;10.14;67.53;102554.22;5094622;28;20529;-75
2021/09/30 04:06:18;;;;;;;9.32;1.70;;;;;;;10.25;65.92;102558.88;5094143;28;20036;-74
2021/09/30 04:08:44;;;;;;;7.60;1.58;;;;;;;10.34;65.71;102565.47;5094751;28;20059;-75
2021/09/30 04:11:10;;;;;;;6.97;1.60;;;;;;;10.44;64.53;102566.59;5094447;28;20036;-75
2021/09/30 04:13:35;;;;;;;9.80;1.73;;;;;;;10.55;64.64;102572.13;5094326;28;20028;-74
2021/09/30 04:16:01;;;;;;;6.63;1.80;;;;;;;10.61;65.04;102570.84;5094191;28;20041;-75
2021/09/30 04:18:27;;;;;;;12.77;2.10;;;;;;;10.63;65.37;102565.44;5093689;28;20036;-75
2021/09/30 04:20:52;;;;;;;14.05;2.75;;;;;;;10.66;65.68;102571.44;5094041;28;20456;-75
2021/09/30 04:23:18;;;;;;;8.85;1.70;;;;;;;10.65;66.15;102568.88;5093879;28;20103;-74
2021/09/30 04:25:43;;;;;;;10.38;2.13;;;;;;;10.74;64.74;102573.63;5094176;28;20038;-75
2021/09/30 04:28:08;;;;;;;9.93;1.90;;;;;;;10.75;64.85;102578.00;5093704;28;20036;-77
2021/09/30 04:30:34;;;;;;;12.40;1.80;;;;;;;10.82;65.02;102575.78;5094572;28;20419;-74
2021/09/30 04:32:59;;;;;;;8.13;1.65;;;;;;;10.81;65.68;102577.59;5076054;28;20437;-75
2021/09/30 04:35:25;;;;;;;12.10;2.13;;;;;;;10.76;66.00;102571.69;5093409;28;20040;-75
2021/09/30 04:37:50;;;;;;;8.00;1.80;;;;;;;10.69;66.46;102591.66;5094072;28;20085;-75
2021/09/30 04:40:16;;;;;;;8.50;1.92;;;;;;;10.62;65.97;102580.56;5093293;28;20036;-74
2021/09/30 04:42:41;;;;;;;11.00;2.20;;;;;;;10.62;65.58;102588.56;5094233;28;20034;-74
2021/09/30 04:45:08;;;;;;;11.32;1.98;;;;;;;10.64;65.00;102581.31;5094013;28;20032;-74
2021/09/30 04:47:33;;;;;;;9.90;1.92;;;;;;;10.63;64.43;102589.41;5093070;28;20027;-74
2021/09/30 04:49:58;;;;;;;7.00;1.55;;;;;;;10.56;64.96;102592.44;5093603;28;20526;-75
2021/09/30 04:52:24;;;;;;;9.80;1.60;;;;;;;10.50;65.83;102587.50;5093145;28;20120;-75
2021/09/30 04:54:50;;;;;;;17.10;2.30;;;;;;;10.40;65.80;102589.91;5093762;28;20460;-75
2021/09/30 04:57:16;;;;;;;9.82;1.63;;;;;;;10.37;64.77;102584.75;5093197;28;20056;-76
2021/09/30 04:59:41;;;;;;;13.95;2.25;;;;;;;10.37;66.44;102592.72;5093963;28;20134;-75
2021/09/30 05:02:07;;;;;;;4.43;1.35;;;;;;;10.40;65.76;102584.59;5093486;28;20506;-75
2021/09/30 05:04:33;;;;;;;9.70;1.60;;;;;;;10.38;65.51;102589.13;5093008;28;20047;-75
2021/09/30 05:06:59;;;;;;;7.70;1.60;;;;;;;10.37;65.15;102587.41;5093605;28;20521;-75
2021/09/30 05:09:25;;;;;;;9.68;1.60;;;;;;;10.32;66.42;102593.97;5092981;28;20032;-75
2021/09/30 05:11:53;;;;;;;12.23;2.10;;;;;;;10.29;64.85;102589.66;5093089;28;20081;-75
2021/09/30 05:14:19;;;;;;;11.88;1.63;;;;;;;10.29;66.15;102586.16;5092669;28;20058;-76
2021/09/30 05:16:45;;;;;;;14.63;1.95;;;;;;;10.24;65.58;102581.97;5092994;28;20031;-75
2021/09/30 05:19:12;;;;;;;12.40;2.00;;;;;;;10.20;65.53;102585.75;5092931;28;20068;-75
2021/09/30 05:21:37;;;;;;;12.00;1.88;;;;;;;10.15;65.00;102584.34;5092740;28;20071;-76
2021/09/30 05:24:03;;;;;;;7.72;1.52;;;;;;;10.10;65.53;102578.44;5093521;28;20464;-75
2021/09/30 05:26:28;;;;;;;7.97;1.60;;;;;;;10.03;65.65;102584.16;5092520;28;20050;-73
2021/09/30 05:28:55;;;;;;;8.60;1.58;;;;;;;9.97;66.40;102587.19;5092946;28;20388;-75
2021/09/30 05:31:21;;;;;;;8.05;1.60;;;;;;;9.89;65.70;102576.97;5092335;28;20111;-75
2021/09/30 05:33:46;;;;;;;10.95;1.85;;;;;;;9.88;66.33;102585.06;5089538;28;20111;-74
2021/09/30 05:36:11;;;;;;;9.15;1.67;;;;;;;9.90;66.17;102583.19;5090405;28;20092;-75
2021/09/30 05:38:37;;;;;;;11.13;1.80;;;;;;;9.92;65.83;102586.59;5089493;28;20485;-75
2021/09/30 05:41:03;;;;;;;13.68;1.60;;;;;;;9.96;65.84;102574.81;5090123;28;20048;-74
2021/09/30 05:43:32;;;;;;;7.88;1.50;;;;;;;9.98;66.60;102580.03;5089628;28;20059;-75
2021/09/30 05:45:58;;;;;;;10.43;2.15;;;;;;;9.94;67.54;102575.84;5090353;28;20032;-74
2021/09/30 05:48:24;;;;;;;7.72;1.92;;;;;;;9.84;67.36;102572.91;5089068;28;20385;-74
2021/09/30 05:50:50;;;;;;;5.50;1.13;;;;;;;9.74;65.56;102579.72;5089920;28;20030;-73
2021/09/30 05:53:16;;;;;;;10.60;1.83;;;;;;;9.66;66.75;102582.84;5089726;28;20458;-73
2021/09/30 05:55:42;;;;;;;9.57;4.28;;;;;;;9.57;67.30;102580.69;5089236;28;20097;-75
2021/09/30 05:58:08;;;;;;;11.57;2.35;;;;;;;9.52;67.20;102584.50;5089934;28;20449;-72
2021/09/30 06:01:05;;;;;;;6.97;2.10;;;;;;;9.50;66.86;102585.53;5089336;28;20503;-73
2021/09/30 06:14:29;;;;;;;5.95;1.48;;;;;;;9.51;68.75;102579.28;5091771;28;20039;-73
2021/09/30 06:16:55;;;;;;;10.40;1.60;;;;;;;9.52;67.59;102592.47;5094177;28;20383;-73
2021/09/30 06:19:21;;;;;;;8.43;1.55;;;;;;;9.49;67.85;102587.34;5092679;28;20533;-75
2021/09/30 06:21:48;;;;;;;11.65;1.88;;;;;;;9.45;68.16;102585.81;5092453;28;20059;-73
2021/09/30 06:24:16;;;;;;;7.13;1.63;;;;;;;9.48;68.13;102588.28;5092092;28;20051;-73
2021/09/30 06:26:41;;;;;;;5.82;1.42;;;;;;;9.57;66.96;102588.66;5091807;28;20207;-73
2021/09/30 06:29:06;;;;;;;7.93;1.60;;;;;;;9.68;66.97;102579.13;5092582;28;20084;-73
2021/09/30 06:31:32;;;;;;;6.82;1.70;;;;;;;9.77;68.13;102580.38;5091552;28;20404;-74
2021/09/30 06:33:57;;;;;;;4.43;1.50;;;;;;;9.91;67.14;102579.53;5092723;28;20038;-74
2021/09/30 06:36:22;;;;;;;8.25;1.42;;;;;;;10.05;66.50;102579.56;5074016;28;20040;-75
2021/09/30 06:38:48;;;;;;;9.38;1.80;;;;;;;10.26;65.00;102583.69;5092341;28;20028;-74
2021/09/30 06:41:13;;;;;;;7.10;1.80;;;;;;;10.45;63.69;102576.31;5074254;28;20082;-73
2021/09/30 06:43:39;;;;;;;10.52;1.60;;;;;;;10.56;66.70;102581.81;5073653;28;20032;-73
2021/09/30 06:46:04;;;;;;;10.82;1.60;;;;;;;10.58;66.60;102571.94;5095882;28;20038;-73
2021/09/30 06:48:29;;;;;;;11.88;1.92;;;;;;;10.60;67.89;102587.81;5095568;28;20036;-73
2021/09/30 06:50:55;;;;;;;4.70;1.52;;;;;;;10.58;67.05;102590.56;5096169;28;20063;-73
2021/09/30 06:53:21;;;;;;;12.57;1.77;;;;;;;10.58;67.82;102587.03;5096169;28;20035;-73
2021/09/30 06:55:47;;;;;;;13.23;1.92;;;;;;;10.59;64.37;102584.25;5077202;28;20087;-73
2021/09/30 06:58:13;;;;;;;8.40;1.38;;;;;;;10.69;64.15;102587.22;5096052;28;20468;-73
2021/09/30 07:00:39;;;;;;;11.40;1.70;;;;;;;10.77;64.61;102595.56;5095440;28;20032;-74
2021/09/30 07:03:04;;;;;;;14.68;2.25;;;;;;;10.84;65.41;102584.50;5096024;28;20030;-73
2021/09/30 07:05:31;;;;;;;9.07;1.98;;;;;;;10.88;65.05;102589.56;5095101;28;20036;-74
2021/09/30 07:07:59;;;;;;;10.77;2.08;;;;;;;10.97;68.40;102595.25;5095886;28;20039;-73
2021/09/30 07:10:25;;;;;;;6.93;1.70;;;;;;;11.07;64.87;102591.03;5077510;28;20410;-73
2021/09/30 07:12:50;;;;;;;12.07;2.10;;;;;;;11.22;65.65;102600.69;5076827;28;20043;-74
2021/09/30 07:15:15;;;;;;;14.82;2.00;;;;;;;11.41;66.32;102596.81;5095370;28;20048;-73
2021/09/30 07:17:41;;;;;;;16.42;2.00;;;;;;;11.62;64.91;102603.38;5094691;28;20062;-74
2021/09/30 07:20:06;;;;;;;6.57;1.60;;;;;;;11.80;66.07;102595.94;5095685;28;20453;-73
2021/09/30 07:22:32;;;;;;;9.60;2.08;;;;;;;11.94;63.11;102603.06;5094640;28;20111;-74
2021/09/30 07:24:57;;;;;;;6.18;1.40;;;;;;;12.06;61.50;102614.69;5095832;28;20380;-73
2021/09/30 07:27:23;;;;;;;9.57;1.45;;;;;;;12.15;61.50;102610.50;5095488;28;20456;-74
2021/09/30 07:29:50;;;;;;;7.53;2.30;;;;;;;12.14;61.94;102606.16;5076787;28;20957;-74
2021/09/30 07:32:16;;;;;;;10.00;1.48;;;;;;;12.09;61.50;102601.16;5077632;28;20036;-73
2021/09/30 07:34:41;;;;;;;9.95;1.60;;;;;;;12.09;60.90;102601.16;5094820;28;20040;-74
2021/09/30 07:37:07;;;;;;;6.97;1.60;;;;;;;12.13;61.15;102609.78;5095268;28;20035;-74
2021/09/30 07:39:33;;;;;;;4.75;1.45;;;;;;;12.21;58.56;102617.25;5094745;28;20028;-73
2021/09/30 07:41:59;;;;;;;7.80;1.67;;;;;;;12.29;58.25;102607.75;5094797;28;20047;-74
2021/09/30 07:44:25;;;;;;;7.35;1.67;;;;;;;12.36;58.82;102608.19;5095183;28;20472;-74
2021/09/30 07:46:51;;;;;;;4.50;1.30;;;;;;;12.41;58.85;102611.38;5094489;28;20536;-74
2021/09/30 07:49:16;;;;;;;11.25;1.65;;;;;;;12.46;59.34;102605.72;5094799;28;20062;-73
2021/09/30 07:51:42;;;;;;;8.93;1.83;;;;;;;12.57;60.20;102605.81;5094331;28;20461;-74
2021/09/30 07:54:09;;;;;;;10.02;1.58;;;;;;;12.73;58.06;102608.22;5095025;28;20039;-71
2021/09/30 07:56:35;;;;;;;12.07;1.90;;;;;;;12.93;59.74;102612.16;5093840;28;20032;-75
2021/09/30 07:59:00;;;;;;;7.00;1.58;;;;;;;13.11;60.08;102615.28;5094901;28;20369;-73
2021/09/30 08:01:26;;;;;;;10.88;2.20;;;;;;;13.20;57.76;102624.47;5095024;28;20039;-73
2021/09/30 08:03:52;;;;;;;7.63;1.75;;;;;;;13.20;61.08;102624.47;5094254;28;20425;-71
2021/09/30 08:06:18;;;;;;;8.60;2.10;;;;;;;13.17;61.77;102620.19;5094752;28;20035;-71
2021/09/30 08:08:44;;;;;;;7.53;2.10;;;;;;;13.20;62.02;102625.31;5094409;28;20098;-74
2021/09/30 08:11:10;;;;;;;10.55;2.05;;;;;;;13.15;62.41;102621.25;5094577;28;20075;-71
2021/09/30 08:13:35;;;;;;;7.38;2.00;;;;;;;13.04;62.99;102624.72;5093762;28;20448;-73
2021/09/30 08:16:01;;;;;;;10.43;2.60;;;;;;;12.97;63.55;102618.09;5076351;28;20516;-73
2021/09/30 08:18:27;;;;;;;7.93;1.98;;;;;;;12.83;65.32;102621.78;5094690;28;20032;-71
2021/09/30 08:20:53;;;;;;;10.40;2.50;;;;;;;12.87;63.88;102620.59;5093825;28;20032;-74
2021/09/30 08:23:20;;;;;;;8.43;2.38;;;;;;;13.08;65.05;102618.19;5094406;28;20085;-72
2021/09/30 08:25:46;;;;;;;9.38;2.05;;;;;;;13.47;62.49;102628.75;5093809;28;20081;-76
2021/09/30 08:28:11;;;;;;;9.90;2.10;;;;;;;13.66;63.40;102622.88;5094373;28;20031;-74
2021/09/30 08:30:40;;;;;;;12.85;2.28;;;;;;;13.72;63.12;102625.09;5094217;28;20071;-74
2021/09/30 08:33:06;;;;;;;11.32;2.42;;;;;;;13.85;62.89;102615.19;5094255;28;20114;-76
2021/09/30 08:35:31;;;;;;;10.82;2.60;;;;;;;13.99;63.35;102611.44;5094232;28;20111;-73
2021/09/30 08:37:56;;;;;;;10.15;1.70;;;;;;;14.15;61.37;102612.91;5093417;28;20036;-73
2021/09/30 08:40:23;;;;;;;8.13;1.70;;;;;;;14.15;61.51;102610.22;5094214;28;20460;-73
2021/09/30 08:42:48;;;;;;;9.32;2.35;;;;;;;14.10;62.65;102613.25;5093422;28;20111;-73
2021/09/30 08:45:19;;;;;;;11.32;2.22;;;;;;;14.05;63.27;102605.59;5093998;28;20062;-73
2021/09/30 08:47:53;;;;;;;11.27;2.33;;;;;;;13.96;62.90;102603.63;5093502;28;20036;-73
2021/09/30 08:50:18;;;;;;;7.63;2.22;;;;;;;13.84;62.90;102608.09;5075982;28;20035;-73
2021/09/30 08:52:44;;;;;;;10.75;2.08;;;;;;;13.68;63.13;102613.75;5092616;28;20372;-73
2021/09/30 08:55:09;;;;;;;10.23;2.13;;;;;;;13.64;62.46;102619.47;5092978;28;20051;-74
2021/09/30 08:57:35;;;;;;;8.57;2.00;;;;;;;13.55;63.75;102619.22;5075417;28;20028;-74
2021/09/30 09:00:06;;;;;;;12.55;2.65;;;;;;;13.39;65.24;102608.78;5092879;28;20248;-73
2021/09/30 09:02:38;;;;;;;13.13;2.35;;;;;;;13.31;66.33;102616.50;5093471;28;20028;-73
2021/09/30 09:05:04;;;;;;;10.77;2.22;;;;;;;13.23;65.41;102608.19;5092952;28;20050;-73
2021/09/30 09:07:31;;;;;;;14.20;3.10;;;;;;;13.17;66.69;102609.50;5093225;28;20539;-73
2021/09/30 09:10:01;;;;;;;8.25;2.13;;;;;;;13.17;67.04;102600.63;5092581;28;20024;-74
2021/09/30 09:12:31;;;;;;;14.02;2.33;;;;;;;13.09;67.84;102605.69;5093328;28;20054;-73
2021/09/30 09:14:58;;;;;;;11.48;1.90;;;;;;;13.10;67.07;102600.22;5092457;28;20052;-73
2021/09/30 09:17:23;;;;;;;15.50;2.45;;;;;;;13.14;66.08;102596.38;5093469;28;20032;-74
2021/09/30 09:19:54;;;;;;;16.77;2.05;;;;;;;13.17;65.38;102597.97;5092722;28;20032;-75
2021/09/30 09:22:23;;;;;;;8.60;1.90;;;;;;;13.29;64.69;102596.19;5093414;28;20115;-74
2021/09/30 09:24:58;;;;;;;9.40;2.03;;;;;;;13.55;64.66;102592.47;5092650;28;20530;-74
2021/09/30 09:27:24;;;;;;;6.57;1.85;;;;;;;13.86;63.41;102594.63;5093259;28;20039;-74
2021/09/30 09:29:49;;;;;;;9.15;2.35;;;;;;;14.05;63.66;102592.22;5074551;28;20036;-75
2021/09/30 09:32:15;;;;;;;10.57;1.95;;;;;;;14.30;62.22;102590.28;5093177;28;20075;-75
2021/09/30 09:34:41;;;;;;;8.98;2.05;;;;;;;14.65;60.72;102586.66;5093114;28;20043;-75
2021/09/30 09:37:32;;;;;;;8.07;1.98;;;;;;;14.62;61.00;102570.84;5092436;28;20032;-75
2021/09/30 09:39:58;;;;;;;;;;;;;;;14.53;60.11;102588.47;5092791;28;20111;-75
2021/09/30 09:42:30;;;;;;;6.28;1.77;;;;;;;14.51;59.80;102589.56;5092967;28;19943;-74
2021/09/30 09:45:01;;;;;;;14.85;2.03;;;;;;;14.42;60.27;102583.09;5092377;28;20028;-75
2021/09/30 09:47:36;;;;;;;9.40;1.92;;;;;;;14.37;59.37;102585.31;5093072;28;20047;-74
2021/09/30 09:50:14;;;;;;;9.52;1.52;;;;;;;14.59;59.19;102581.78;5092117;28;20024;-75
2021/09/30 09:52:59;;;;;;;12.82;1.65;;;;;;;15.13;58.20;102574.75;5092899;28;20032;-74
2021/09/30 09:55:24;;;;;;;10.25;1.88;;;;;;;15.39;55.74;102577.97;5092827;28;20024;-74
2021/09/30 09:58:03;;;;;;;7.93;1.67;;;;;;;15.52;56.77;102575.94;5091760;28;20097;-75
2021/09/30 10:00:29;;;;;;;7.57;1.50;;;;;;;15.71;57.33;102574.38;5092618;28;20032;-75
2021/09/30 10:02:56;;;;;;;17.45;2.63;;;;;;;15.91;56.55;102571.84;5091760;28;20028;-75
2021/09/30 10:05:22;;;;;;;7.57;1.85;;;;;;;15.92;54.87;102570.88;5092623;28;20088;-75
2021/09/30 10:07:47;;;;;;;6.82;1.98;;;;;;;15.98;54.36;102570.34;5092680;28;20036;-74
2021/09/30 10:10:17;;;;;;;8.68;1.77;;;;;;;15.63;56.07;102579.53;5073971;28;20055;-75
2021/09/30 10:12:43;;;;;;;10.63;1.70;;;;;;;15.41;58.00;102578.66;5074454;28;20426;-75
2021/09/30 10:15:11;;;;;;;9.48;1.90;;;;;;;15.27;57.46;102573.59;5091967;28;20131;-74
2021/09/30 10:17:37;;;;;;;8.35;1.90;;;;;;;15.20;59.13;102567.91;5092705;28;20032;-73
2021/09/30 10:20:03;;;;;;;6.65;1.20;;;;;;;15.29;52.60;102575.19;5098411;28;20157;-73
2021/09/30 10:22:29;;;;;;;5.13;1.63;;;;;;;15.32;56.21;102569.56;5099305;28;20115;-73
2021/09/30 10:24:56;;;;;;;5.78;1.42;;;;;;;15.20;55.88;102564.34;5098621;28;20130;-71
2021/09/30 10:27:22;;;;;;;7.85;2.15;;;;;;;15.28;56.78;102562.75;5099147;28;20170;-73
2021/09/30 10:29:48;;;;;;;8.88;1.90;;;;;;;15.11;57.41;102561.47;5099162;28;20043;-72
2021/09/30 10:32:19;;;;;;;14.27;2.40;;;;;;;15.16;57.67;102556.56;5098624;28;20047;-73
2021/09/30 10:34:47;;;;;;;11.10;1.70;;;;;;;15.19;58.21;102563.50;5099284;28;20108;-74
2021/09/30 10:37:25;;;;;;;9.77;2.03;;;;;;;15.26;58.22;102562.03;5098460;28;20165;-74
2021/09/30 10:40:19;;;;;;;8.68;1.85;;;;;;;15.32;57.24;102556.16;5099168;28;20032;-74
2021/09/30 10:42:45;;;;;;;9.05;1.63;;;;;;;15.26;58.39;102558.50;5098752;28;20496;-74
2021/09/30 10:45:12;;;;;;;9.40;1.70;;;;;;;15.18;57.77;102566.31;5098465;28;20072;-75
2021/09/30 10:47:38;;;;;;;7.07;1.80;;;;;;;15.07;58.98;102560.03;5099367;28;20040;-75
2021/09/30 10:50:04;;;;;;;7.25;1.75;;;;;;;15.06;57.56;102560.16;5098448;28;20063;-75
2021/09/30 10:52:35;;;;;;;6.78;1.88;;;;;;;14.96;58.76;102562.75;5099071;28;20032;-74
2021/09/30 10:55:02;;;;;;;10.20;1.83;;;;;;;14.76;60.20;102557.19;5098364;28;20110;-77
2021/09/30 10:57:30;;;;;;;9.80;2.08;;;;;;;14.69;58.88;102557.78;5098993;28;20038;-75
2021/09/30 10:59:56;;;;;;;13.55;2.10;;;;;;;14.68;58.36;102553.44;5098670;28;20028;-75
2021/09/30 11:02:21;;;;;;;9.65;2.08;;;;;;;14.63;57.33;102554.66;5098834;28;20024;-75
2021/09/30 11:05:09;;;;;;;6.40;1.80;;;;;;;14.41;57.11;102568.88;5098871;28;20093;-75
2021/09/30 11:07:40;;;;;;;8.73;2.08;;;;;;;14.33;58.98;102560.63;5080573;28;20035;-75
2021/09/30 11:10:19;;;;;;;6.45;1.75;;;;;;;14.14;58.91;102571.91;5098294;28;20408;-75
2021/09/30 11:13:16;;;;;;;9.00;2.00;;;;;;;14.00;59.64;102553.41;5098959;28;20032;-75
2021/09/30 11:16:06;;;;;;;6.43;1.63;;;;;;;13.82;60.87;102556.53;5098825;28;20048;-74
2021/09/30 11:18:43;;;;;;;6.07;1.95;;;;;;;13.72;60.59;102567.09;5098698;28;20024;-74
2021/09/30 11:23:56;;;;;;;5.90;1.40;;;;;;;13.66;59.98;102553.31;5098671;28;20089;-75
2021/09/30 11:26:22;;;;;;;6.20;1.50;;;;;;;13.51;61.97;102556.22;5098137;28;20491;-75
2021/09/30 11:28:48;;;;;;;8.00;1.92;;;;;;;13.46;60.99;102554.84;5098773;28;20036;-75
2021/09/30 11:31:24;;;;;;;9.00;2.03;;;;;;;13.44;61.88;102562.16;5094168;28;20480;-75
2021/09/30 11:33:50;;;;;;;6.50;1.98;;;;;;;13.53;62.74;102548.91;5095480;28;20035;-74
2021/09/30 11:36:16;;;;;;;6.13;1.70;;;;;;;13.58;62.51;102543.22;5094683;28;20104;-74
2021/09/30 11:38:42;;;;;;;8.80;1.77;;;;;;;13.58;60.57;102545.88;5095345;28;20464;-73
2021/09/30 11:41:07;;;;;;;9.15;1.65;;;;;;;13.60;61.04;102540.44;5094623;28;20092;-74
2021/09/30 11:43:34;;;;;;;7.00;1.60;;;;;;;13.57;60.83;102549.56;5095235;28;20027;-75
2021/09/30 11:46:25;;;;;;;7.68;1.55;;;;;;;13.70;59.78;102541.44;5095033;28;20109;-76
2021/09/30 11:49:04;;;;;;;9.85;2.05;;;;;;;13.66;60.41;102532.78;5094990;28;20081;-71
2021/09/30 11:51:36;;;;;;;4.25;1.70;;;;;;;13.63;59.40;102532.16;5095070;28;20032;-72
2021/09/30 11:54:02;;;;;;;;;;;;;;;13.66;59.87;102529.25;5095659;28;20035;-73
2021/09/30 11:56:28;;;;;;;7.30;1.45;;;;;;;13.65;58.89;102533.75;5094144;28;19916;-74
2021/09/30 11:59:02;;;;;;;5.63;1.60;;;;;;;13.63;60.64;102522.34;5102629;28;20027;-73
2021/09/30 12:01:41;;;;;;;7.53;1.48;;;;;;;13.58;60.65;102525.38;5105264;28;20468;-74
2021/09/30 12:04:08;;;;;;;6.70;1.80;;;;;;;13.55;59.78;102519.38;5104721;28;20072;-73
2021/09/30 12:06:41;;;;;;;8.00;1.50;;;;;;;13.50;59.43;102526.91;5103518;28;20039;-73
2021/09/30 12:09:10;;;;;;;8.30;1.95;;;;;;;13.49;60.23;102510.00;5102204;28;20023;-73
2021/09/30 12:11:39;;;;;;;6.35;1.58;;;;;;;13.51;61.70;102512.56;5095918;28;20472;-73
2021/09/30 12:14:07;;;;;;;5.28;1.48;;;;;;;13.42;59.00;102521.28;5093746;28;20032;-77
2021/09/30 12:16:32;;;;;;;8.50;1.60;;;;;;;13.35;61.23;102516.41;5093678;28;20127;-76
2021/09/30 12:19:04;;;;;;;7.65;1.50;;;;;;;13.35;61.13;102505.72;5093746;28;20110;-77
2021/09/30 12:21:40;;;;;;;4.28;1.42;;;;;;;13.34;59.91;102504.00;5093593;28;20035;-78
2021/09/30 12:24:08;;;;;;;5.13;1.50;;;;;;;13.40;61.56;102508.03;5094482;28;20111;-76
2021/09/30 12:26:37;;;;;;;5.50;1.63;;;;;;;13.40;60.62;102502.69;5076496;28;20036;-76
2021/09/30 12:29:05;;;;;;;8.82;1.65;;;;;;;13.49;61.39;102495.78;5059472;28;20053;-78
2021/09/30 12:31:31;;;;;;;5.63;1.65;;;;;;;13.55;61.22;102496.19;5075392;28;20402;-75
2021/09/30 12:33:56;;;;;;;7.15;1.65;;;;;;;13.70;59.46;102488.81;5094067;28;20076;-75
2021/09/30 12:36:23;;;;;;;5.07;1.77;;;;;;;13.89;58.18;102474.81;5093141;28;20032;-75
2021/09/30 12:39:00;;;;;;;4.88;1.52;;;;;;;14.39;57.19;102468.19;5094252;28;20164;-76
2021/09/30 12:41:27;;;;;;;7.10;1.98;;;;;;;14.86;57.24;102463.50;5092462;28;20043;-76
2021/09/30 12:43:53;;;;;;;7.82;1.80;;;;;;;15.14;55.29;102453.97;5094003;28;20034;-74
2021/09/30 12:46:19;;;;;;;6.40;1.70;;;;;;;15.21;54.39;102461.50;5093498;28;20107;-79
2021/09/30 12:48:48;;;;;;;5.47;1.70;;;;;;;15.32;56.52;102454.25;5094217;28;20031;-78
2021/09/30 12:51:17;;;;;;;12.30;1.95;;;;;;;15.19;55.77;102452.75;5093151;28;20357;-77
2021/09/30 12:53:45;;;;;;;8.93;1.83;;;;;;;15.06;57.10;102452.91;5076164;28;20028;-80
2021/09/30 12:56:13;;;;;;;7.95;3.10;;;;;;;14.96;57.76;102439.47;5093707;28;20024;-79
2021/09/30 12:58:41;;;;;;;6.93;2.13;;;;;;;14.77;58.01;102445.50;5093712;28;20020;-73
2021/09/30 13:01:27;;;;;;;11.55;1.70;;;;;;;14.45;57.70;102440.94;5093809;28;20042;-73
2021/09/30 13:04:21;;;;;;;9.00;1.67;;;;;;;14.46;57.85;102437.28;5093828;28;20020;-72
2021/09/30 13:07:05;;;;;;;10.43;1.65;;;;;;;14.51;57.59;102436.91;5093739;28;20062;-73
2021/09/30 13:09:34;;;;;;;5.13;1.50;;;;;;;14.81;57.76;102418.31;5093125;28;20032;-73
2021/09/30 13:12:14;;;;;;;5.82;1.63;;;;;;;15.08;56.28;102421.50;5093142;28;20115;-73
2021/09/30 13:14:53;;;;;;;7.90;1.60;;;;;;;15.11;57.88;102410.50;5093291;28;20051;-75
2021/09/30 13:17:20;;;;;;;7.30;1.73;;;;;;;14.93;58.14;102405.72;5092780;28;20026;-75
2021/09/30 13:19:49;;;;;;;7.95;2.03;;;;;;;14.52;58.08;102419.84;5093497;28;20054;-74
2021/09/30 13:22:28;;;;;;;9.93;2.00;;;;;;;14.37;59.78;102411.25;5092893;28;20024;-77
2021/09/30 13:24:58;;;;;;;12.90;2.15;;;;;;;14.32;60.38;102408.97;5093216;28;20111;-74
2021/09/30 13:27:36;;;;;;;7.25;2.25;;;;;;;14.08;60.47;102388.56;5092356;28;20028;-73
2021/09/30 13:30:06;;;;;;;6.93;1.85;;;;;;;14.08;61.95;102404.63;5093354;28;20024;-73
2021/09/30 13:32:32;;;;;;;7.93;2.10;;;;;;;13.98;60.76;102392.97;5088571;28;20036;-76
2021/09/30 13:34:59;;;;;;;11.25;2.40;;;;;;;14.05;61.43;102383.47;5072938;28;20077;-75
2021/09/30 13:37:26;;;;;;;10.00;2.50;;;;;;;13.99;60.98;102385.78;5090381;28;20055;-74
2021/09/30 13:39:56;;;;;;;12.55;2.30;;;;;;;13.84;62.11;102394.06;5092893;28;20024;-74
2021/09/30 13:42:23;;;;;;;11.98;2.08;;;;;;;13.83;63.33;102372.78;5092690;28;20028;-74
2021/09/30 13:44:48;;;;;;;11.35;1.90;;;;;;;13.71;63.22;102364.75;5092821;28;20062;-73
2021/09/30 13:47:14;;;;;;;9.05;2.20;;;;;;;13.67;62.69;102365.13;5092775;28;20103;-73
2021/09/30 13:49:40;;;;;;;9.88;2.10;;;;;;;13.61;63.98;102361.13;5090429;28;20036;-72
2021/09/30 13:52:06;;;;;;;11.48;2.25;;;;;;;13.54;64.79;102362.56;5092742;28;20024;-72
2021/09/30 13:54:31;;;;;;;8.13;1.85;;;;;;;13.48;64.96;102355.91;5091836;28;20064;-72
2021/09/30 13:56:57;;;;;;;6.50;2.17;;;;;;;13.48;65.23;102355.03;5092342;28;20028;-72
2021/09/30 13:59:22;;;;;;;6.85;1.80;;;;;;;13.49;65.11;102349.56;5073313;28;20056;-72
2021/09/30 14:01:47;;;;;;;7.18;1.80;;;;;;;13.55;65.18;102345.56;5092467;28;20036;-75
2021/09/30 14:04:13;;;;;;;9.23;1.58;;;;;;;13.56;65.05;102347.28;5075272;28;20388;-74
2021/09/30 14:06:38;;;;;;;7.13;2.00;;;;;;;13.51;64.50;102341.44;5071805;28;20041;-74
2021/09/30 14:09:04;;;;;;;8.65;1.90;;;;;;;13.55;64.90;102340.22;5072055;28;20024;-73
2021/09/30 14:11:29;;;;;;;12.10;1.90;;;;;;;13.59;64.81;102341.69;5071430;28;20040;-75
2021/09/30 14:13:55;;;;;;;9.02;1.67;;;;;;;13.56;64.81;102342.78;5071964;28;20031;-74
2021/09/30 14:16:22;;;;;;;8.10;2.15;;;;;;;13.48;64.15;102341.66;5071641;28;20127;-75
2021/09/30 14:18:47;;;;;;;12.32;1.75;;;;;;;13.38;65.91;102331.72;5072060;28;20092;-75
2021/09/30 14:21:13;;;;;;;13.50;2.28;;;;;;;13.34;65.36;102337.44;5072274;28;20478;-75
2021/09/30 14:23:38;;;;;;;10.30;2.15;;;;;;;13.25;66.39;102335.44;5071637;28;20031;-74
2021/09/30 14:26:04;;;;;;;6.95;1.67;;;;;;;13.15;64.61;102322.81;5072327;28;20024;-75